Terminal Aerodrome Forecast
Issued by NWS

Home | Current Version | Previous Version | Text Only | Print | Product List | Glossary On
Versions: 1 2 3 4 5 6 7 8 9 10 11 12 13 14 15 16 17 18 19 20
000
FTUS43 KPAH 211700
TAFCGI
TAF
KCGI 211720Z 2118/2218 21008KT P6SM SCT030 BKN250
     FM220100 20004KT P6SM SCT250
      TEMPO 2208/2212 5SM BR
     FM221500 23007KT P6SM SCT030=

USA.gov is the U.S. government's official web portal to all federal, state and local government web resources and services.